Weather observations for the past three days for
Howell, Livingston County Airport
Metric (Imperial)
Date Time (edt) Wind (kph) Vis. (km) Weather Sky Cond. Temperature (ºC) Relative Humidity Wind Chill (°C) Heat Index (°C) Pressure Precipitation (cm)
Air Dwpt 6 hour altimeter (cm) sea level (mb) 1 hr 3 hr 6 hr
Max. Min.
10 11:55 N 13 16.09 Fair CLR 12 -5 30% 76.35 0.0
10 11:35 Vrbl 9 16.09 Fair CLR 12 -5 30% 76.35 0.0
10 11:15 N 17 16.09 Fair CLR 11 -4 35% 76.33 0.0
10 10:55 NW 19 G 31 16.09 Fair CLR 11 -4 35% 76.33 0.0
10 10:35 NW 17 16.09 Fair CLR 11 -4 35% 76.3 0.0
10 10:15 NW 15 G 28 16.09 Fair CLR 10 -3 40% 8 76.3 0.0
10 09:56 NW 15 16.09 Fair CLR 10 -3 40% 8 76.3 0.0
10 09:35 NW 11 G 26 16.09 Fair CLR 9 -3 43% 8 76.28 0.0
10 09:15 Vrbl 6 16.09 Fair CLR 9 -2 46% 76.28 0.0
10 08:55 Vrbl 6 16.09 Fair CLR 8 -2 50% 76.25 0.0
10 08:35 Vrbl 7 16.09 Fair CLR 8 -2 50% 7 76.25 0.0
10 08:15 NW 7 16.09 Fair CLR 7 -1 57% 6 76.23 0.0
10 07:55 W 9 16.09 Fair CLR 6 -1 8.7 0.7 61% 4 76.2 0.0
10 07:36 SW 11 16.09 Fair CLR 5 -1 66% 3 76.17 0.0
10 07:15 NW 13 16.09 Fair CLR 3 -1 75% 0 76.17 0.0
10 06:55 SW 13 16.09 Fair CLR 2 -2 75% -1 76.15 0.0
10 06:35 NW 13 16.09 Fair CLR 3 -3 65% 0 76.12 0.0
10 06:15 SW 6 16.09 Fair CLR 2 -2 75% 76.12 0.0
10 05:55 SW 9 16.09 Fair CLR 3 -2 70% 1 76.1 0.0
10 05:35 W 6 16.09 Fair CLR 4 -4 56% 76.07 0.0
10 05:16 SW 9 16.09 Fair CLR 3 -4 60% 1 76.07 0.0
10 04:55 Vrbl 9 16.09 Fair CLR 5 -4 53% 3 76.02 0.0
10 04:35 NE 2 16.09 Fair CLR 5 -4 53% 76 0.0
10 04:15 Vrbl 7 16.09 Fair CLR 5 -4 53% 4 76 0.0
10 03:55 Vrbl 7 16.09 Fair CLR 6 -4 49% 5 75.97 0.0
10 03:35 Vrbl 9 16.09 Fair CLR 6 -4 49% 4 75.95 0.0
10 03:15 Vrbl 7 16.09 Fair CLR 7 -3 49% 6 75.92 0.0
10 02:56 Vrbl 9 16.09 Fair CLR 7 -2 53% 5 75.9 0.0
10 02:35 Vrbl 9 16.09 Fair CLR 8 -2 50% 7 75.87 0.0
10 02:15 N 7 16.09 Fair CLR 8 -2 50% 7 75.84 0.0
10 01:55 N 9 16.09 Fair CLR 9 -1 16.9 8.5 50% 8 75.82 0.0
10 01:35 N 13 16.09 Fair CLR 9 0 54% 7 75.79 0.0
10 01:15 N 9 16.09 Fair CLR 9 1 58% 8 75.77 0.0
10 00:55 NW 20 16.09 Fair CLR 9 1 58% 6 75.74 0.0
10 00:36 NW 19 16.09 Partly Cloudy SCT080 10 1 54% 8 75.72 0.0
10 00:15 NW 17 16.09 Partly Cloudy SCT090 10 0 50% 8 75.72 0.0
09 23:55 NW 15 16.09 Partly Cloudy FEW080 SCT090 11 0 47% 75.69 0.0
09 23:35 NW 6 16.09 Partly Cloudy SCT090 11 1 50% 75.67 0.0
09 23:16 NW 7 16.09 Partly Cloudy SCT100 11 1 50% 75.64 0.0
09 22:55 NW 9 16.09 A Few Clouds FEW100 11 1 50% 75.64 0.0
09 22:35 NW 9 16.09 Fair CLR 11 0 47% 75.62 0.0
09 22:15 NW 15 G 30 16.09 Fair CLR 13 0 41% 75.57 0.0
09 21:55 NW 9 16.09 Fair CLR 14 0 39% 75.54 0.0
09 21:35 N 19 G 31 16.09 A Few Clouds FEW090 15 0 36% 75.51 0.0
09 21:15 NW 15 16.09 Partly Cloudy SCT090 15 0 36% 75.44 0.0
09 20:56 NW 19 16.09 Partly Cloudy SCT090 15 2 42% 75.39 0.0
09 20:35 NW 17 16.09 Fair CLR 16 3 42% 75.36 0.0
09 20:15 NW 19 16.09 Mostly Cloudy FEW075 SCT085 BKN110 17 3 39% 75.31 0.0
09 19:55 NW 15 16.09 Mostly Cloudy BKN085 BKN110 17 3 20.2 16.5 39% 75.31 0.0
09 19:35 W 15 G 31 16.09 Partly Cloudy SCT085 18 2 34% 75.29 0.0
09 19:15 W 24 16.09 Partly Cloudy FEW075 SCT095 18 2 34% 75.26 0.0
09 18:55 W 26 16.09 Partly Cloudy FEW075 SCT095 18 2 34% 75.26 0.0
09 18:36 W 28 G 39 16.09 A Few Clouds FEW080 FEW095 18 2 34% 75.26 0.0
09 18:15 W 31 G 43 16.09 Fair CLR 19 2 32% 75.23 0.0
09 17:55 W 31 G 48 16.09 Fair CLR 19 2 32% 75.23 0.0
09 17:35 W 35 G 67 16.09 Fair and Breezy CLR 20 0 26% 75.21 0.0
09 17:15 W 44 G 57 16.09 A Few Clouds and Windy FEW090 20 1 28% 75.18 0.0
09 16:55 W 31 G 54 16.09 Fair CLR 20 2 30% 75.16 0.0
09 16:35 W 33 G 43 16.09 Fair and Breezy CLR 19 3 35% 75.18 0.0
09 16:16 W 26 G 44 16.09 Partly Cloudy SCT120 19 3 35% 75.21 0.0
09 15:55 W 24 G 35 16.09 Mostly Cloudy BKN110 17 3 39% 75.26 0.0
09 15:35 W 26 G 43 16.09 Overcast OVC100 17 2 37% 75.29 0.0
09 15:15 W 33 G 43 16.09 Mostly Cloudy and Breezy BKN090 BKN110 18 2 34% 75.26 0.0
09 14:55 W 26 G 41 16.09 Partly Cloudy FEW100 SCT110 18 4 40% 75.21 0.0
09 14:35 NW 26 G 48 16.09 A Few Clouds FEW050 FEW060 18 3 37% 75.21 0.0
09 14:15 W 24 G 48 16.09 Partly Cloudy SCT050 SCT060 SCT090 19 7 46% 75.18 0.0
09 13:56 W 39 G 54 16.09 Light Rain and Breezy BKN055 BKN070 BKN080 17 9 60% 75.16 0.0
09 13:35 SW 31 G 46 16.09 Partly Cloudy SCT055 SCT065 SCT100 19 7 46% 75.16 0.0
09 13:15 SW 28 G 46 16.09 Mostly Cloudy BKN055 BKN110 19 6 43% 75.16 0.0
09 12:55 W 43 G 54 16.09 A Few Clouds and Windy FEW055 20 6 40% 75.16 0.0
09 12:35 SW 28 G 46 16.09 A Few Clouds FEW120 19 6 43% 75.16 0.0
09 12:15 SW 26 G 41 16.09 Partly Cloudy SCT120 19 7 46% 75.16 0.0
09 11:55 SW 31 G 46 16.09 A Few Clouds FEW120 18 6 46% 75.18 0.0
09 11:36 SW 20 G 31 16.09 Mostly Cloudy SCT095 BKN120 18 8 52% 75.21 0.0
09 11:15 SW 24 G 39 16.09 Mostly Cloudy BKN095 BKN120 16 7 55% 75.18 0.0
09 10:55 S 20 G 33 16.09 A Few Clouds FEW065 17 8 56% 75.18 0.0
09 10:35 S 22 16.09 Mostly Cloudy FEW065 BKN110 16 8 59% 75.21 0.0
09 10:15 S 13 G 28 16.09 Mostly Cloudy FEW065 FEW080 BKN110 14 8 67% 75.23 0.0
09 09:55 S 17 16.09 Mostly Cloudy SCT080 BKN110 13 9 77% 75.23 0.0
09 09:35 S 13 16.09 Overcast BKN090 OVC120 12 9 82% 75.26 0.0
09 09:16 S 17 16.09 Overcast SCT008 OVC100 11 9 88% 75.29 0.0
09 08:55 S 20 G 30 16.09 Overcast OVC006 11 9 88% 75.29 0.0
09 08:35 S 19 G 28 16.09 Overcast OVC006 10 9 94% 8 75.34 0.0
09 08:15 S 17 16.09 Partly Cloudy SCT006 10 9 94% 8 75.31 0.0
09 07:55 S 13 16.09 Fair CLR 10 9 10 7.3 94% 8 75.31 0.0
09 07:35 S 11 14.48 Partly Cloudy SCT120 10 8 88% 9 75.31 0.0
09 07:15 S 11 12.87 Mostly Cloudy BKN120 10 8 88% 9 75.31 0.0
09 06:56 S 7 11.27 Fog/Mist FEW120 9 8 94% 8 75.34 0.0
09 06:35 SW 7 12.87 A Few Clouds FEW120 9 8 94% 8 75.34 0.0
09 06:15 S 11 11.27 Fair CLR 8 7 93% 6 75.34 0.0
09 05:55 S 11 14.48 Fair CLR 8 7 93% 6 75.36 0.0
09 05:35 S 11 14.48 Fair CLR 8 7 93% 6 75.36 0.0
09 05:15 SW 9 12.87 Fair CLR 8 7 93% 7 75.39 0.0
09 04:55 SW 9 12.87 Fair CLR 8 7 93% 7 75.39 0.0
09 04:36 SW 13 16.09 Fair CLR 8 7 93% 6 75.36 0.0
09 04:15 S 11 16.09 Fair CLR 8 7 93% 6 75.39 0.0
09 03:55 SW 13 16.09 Fair CLR 8 7 93% 6 75.39 0.0
09 03:35 SW 9 16.09 Fair CLR 8 6 87% 7 75.39 0.0
09 03:15 SW 11 16.09 Fair CLR 8 6 87% 6 75.41 0.0
09 02:55 SW 15 16.09 Fair CLR 7 5 87% 5 75.44 0.0
09 02:35 SW 17 16.09 Fair CLR 8 4 76% 6 75.44 0.0
09 02:16 SW 17 16.09 Fair CLR 8 3 71% 6 75.46 0.0
09 01:55 SW 15 16.09 Fair CLR 8 1 16.1 5.1 62% 6 75.46 0.0
09 01:35 SW 13 16.09 Fair CLR 8 -2 50% 6 75.49 0.0
09 01:15 S 7 16.09 Fair CLR 8 -4 43% 7 75.49 0.0
09 00:55 S 4 16.09 Fair CLR 6 -3 53% 75.51 0.0
09 00:35 S 4 16.09 Fair CLR 6 -3 53% 75.51 0.0
09 00:15 S 4 16.09 Fair CLR 5 -2 61% 75.51 0.0
08 23:56 Vrbl 4 16.09 Fair CLR 8 -3 46% 75.51 0.0
08 23:35 SW 15 16.09 Fair CLR 7 -2 53% 5 75.54 0.0
08 23:15 SW 2 16.09 Fair CLR 9 -3 43% 75.54 0.0
08 22:55 SW 13 16.09 Fair CLR 9 -4 40% 7 75.54 0.0
08 22:35 SW 6 16.09 Fair CLR 11 -5 32% 75.57 0.0
08 22:15 W 6 16.09 Fair CLR 11 -7 28% 75.57 0.0
08 21:55 NW 6 16.09 Fair CLR 12 -7 26% 75.54 0.0
08 21:36 NW 7 16.09 Fair CLR 12 -7 26% 75.54 0.0
08 21:15 NW 9 16.09 Fair CLR 12 -7 26% 75.54 0.0
08 20:55 NW 9 16.09 Fair CLR 12 -6 28% 75.51 0.0
08 20:35 W 15 16.09 Fair CLR 14 -6 25% 75.49 0.0
08 20:15 W 15 16.09 Fair CLR 16 -6 22% 75.49 0.0
08 19:55 W 17 16.09 A Few Clouds FEW080 16 -4 17.8 15.3 25% 75.49 0.0
08 19:35 W 15 16.09 Partly Cloudy SCT080 16 -1 31% 75.46 0.0
08 19:16 W 17 16.09 Partly Cloudy SCT080 SCT090 17 -2 27% 75.46 0.0
08 18:55 W 19 16.09 Mostly Cloudy BKN080 17 -1 30% 75.46 0.0
08 18:35 SW 24 G 30 16.09 Mostly Cloudy BKN080 17 -1 30% 75.46 0.0
08 18:15 SW 20 G 26 16.09 Mostly Cloudy BKN080 17 -1 30% 75.49 0.0
08 17:55 W 17 G 26 16.09 Mostly Cloudy BKN080 17 -2 27% 75.49 0.0
08 17:35 SW 19 16.09 A Few Clouds FEW080 17 -2 27% 75.49 0.0
08 17:15 SW 17 G 33 16.09 A Few Clouds FEW080 17 -2 27% 75.51 0.0
08 16:56 SW 20 G 28 16.09 Partly Cloudy SCT080 18 -1 28% 75.51 0.0
08 16:35 W 13 G 26 16.09 Mostly Cloudy BKN080 17 -2 27% 75.54 0.0
08 16:15 SW 26 G 31 16.09 Mostly Cloudy BKN080 17 -1 30% 75.57 0.0
08 15:55 W 15 G 33 16.09 A Few Clouds FEW080 17 -2 27% 75.59 0.0
08 15:35 W 19 G 37 16.09 Fair CLR 17 -2 27% 75.62 0.0
08 15:15 W 17 G 30 16.09 Fair CLR 17 -2 27% 75.64 0.0
08 14:55 SW 13 16.09 Fair CLR 16 -2 29% 75.67 0.0
08 14:36 NW 11 G 35 16.09 Fair CLR 16 -3 27% 75.67 0.0
08 14:15 NW 13 16.09 Fair CLR 15 -3 29% 75.69 0.0
08 13:55 W 17 16.09 Fair CLR 15 -3 16 3.9 29% 75.69 0.0
08 13:35 W 17 16.09 Fair CLR 15 -3 29% 75.74 0.0
08 13:15 Vrbl 9 16.09 Fair CLR 15 -4 27% 75.77 0.0
08 12:55 W 22 G 31 16.09 Fair CLR 15 -2 31% 75.79 0.0
08 12:35 W 13 16.09 Fair CLR 14 -3 31% 75.79 0.0
08 12:16 W 9 16.09 Fair CLR 14 -3 31% 75.82 0.0
08 11:55 W 19 G 26 16.09 Fair CLR 14 -2 33% 75.84 0.0
08 11:35 SW 17 16.09 Fair CLR 13 -2 36% 75.84 0.0
08 11:15 Vrbl 11 16.09 Fair CLR 13 -1 38% 75.84 0.0
08 10:55 Vrbl 2 16.09 Fair CLR 12 -2 38% 75.84 0.0
08 10:35 N 7 16.09 Fair CLR 11 0 47% 75.87 0.0
08 10:15 W 6 16.09 Fair CLR 11 1 50% 75.87 0.0
08 09:56 SW 7 16.09 Fair CLR 10 0 50% 9 75.9 0.0
08 09:35 E 6 16.09 Fair CLR 10 1 54% 75.9 0.0
08 09:15 Vrbl 4 16.09 Fair CLR 9 2 62% 75.9 0.0
08 08:55 E 6 16.09 Fair CLR 8 4 76% 75.9 0.0
08 08:35 Vrbl 4 16.09 Fair CLR 7 4 81% 75.9 0.0
08 08:15 E 9 16.09 Fair CLR 6 4 87% 4 75.87 0.0
08 07:55 Vrbl 7 12.87 A Few Clouds FEW070 5 3 5.1 0.7 87% 4 75.87 0.0
08 07:36 S 6 4.83 Fog/Mist CLR 3 2 93% 75.87 0.0
08 07:15 E 4 4.83 Fog/Mist CLR 1 1 100% 75.84 0.0
08 06:55 E 4 6.44 Fog/Mist CLR 1 0 93% 75.82 0.0
08 06:35 NE 15 8.05 Fog/Mist CLR 1 0 93% -3 75.82 0.0
08 06:15 NE 4 4.83 Fog/Mist CLR 1 1 100% 75.82 0.0
08 05:55 S 4 9.66 Fog/Mist CLR 2 1 93% 75.82 0.0
08 05:35 N 6 4.83 Fog/Mist CLR 1 1 100% 75.82 0.0
08 05:16 N 4 8.05 Fog/Mist CLR 2 1 93% 75.82 0.0
08 04:55 Vrbl 4 8.05 Fog/Mist CLR 3 2 93% 75.82 0.0
08 04:35 SE 13 6.44 Fog/Mist FEW095 3 2 93% 0 75.84 0.0
08 04:15 Vrbl 9 16.09 Partly Cloudy SCT095 3 2 93% 1 75.84 0.0
08 03:55 Vrbl 4 16.09 Mostly Cloudy FEW080 BKN095 3 2 93% 75.84 0.0
08 03:35 W 4 16.09 Mostly Cloudy BKN095 3 2 93% 75.84 0.0
08 03:15 Vrbl 6 16.09 A Few Clouds FEW095 4 3 93% 75.84 0.0
08 02:56 Vrbl 4 16.09 Mostly Cloudy FEW038 BKN095 4 3 93% 75.84 0.0
08 02:35 W 2 16.09 Overcast FEW039 OVC095 5 3 87% 75.87 0.0
08 02:15 Calm 14.48 Overcast OVC095 5 4 93% 75.84 0.0
08 01:55 Vrbl 9 16.09 Overcast OVC095 4 3 10.5 3.8 93% 2 75.87 0.0
08 01:35 NW 11 16.09 Overcast FEW037 SCT046 OVC085 5 3 87% 3 75.87 0.0
08 01:15 SE 9 16.09 Overcast SCT037 BKN046 OVC085 5 3 87% 3 75.87 0.0
08 00:55 SW 11 16.09 Partly Cloudy SCT085 4 3 93% 2 75.87 0.0
08 00:36 Vrbl 6 16.09 A Few Clouds FEW085 5 3 87% 75.84 0.0
08 00:15 Vrbl 11 16.09 Overcast SCT031 SCT060 OVC085 5 3 87% 3 75.84 0.0
07 23:55 NE 4 16.09 Overcast OVC033 6 3 81% 75.87 0.0 0.05
07 23:35 E 9 16.09 Overcast BKN035 BKN041 OVC047 6 3 81% 4 75.87 0.0
07 23:15 SE 6 16.09 Light Rain SCT041 OVC048 6 2 76% 75.87 0.0
07 22:55 Vrbl 6 16.09 Overcast BKN050 BKN070 OVC090 8 1 62% 75.9 0.0
07 22:35 E 2 16.09 Overcast OVC090 8 0 57% 75.84 0.0
07 22:16 SW 6 16.09 Overcast FEW055 SCT075 OVC090 9 -2 46% 75.87 0.0
07 21:55 NW 4 16.09 Overcast SCT060 BKN075 OVC120 9 -1 50% 75.84 0.0
07 21:35 N 4 16.09 Mostly Cloudy SCT060 SCT070 BKN095 9 -2 46% 75.84 0.0
07 21:15 W 9 16.09 Overcast OVC060 10 -2 43% 9 75.84 0.0
07 20:55 NW 19 16.09 Overcast BKN065 OVC080 9 -2 46% 7 75.84 0.0
07 20:35 NW 7 16.09 Mostly Cloudy SCT060 SCT075 BKN090 9 -3 43% 8 75.82 0.0
07 20:15 NW 17 G 28 16.09 Mostly Cloudy FEW048 SCT085 BKN110 10 -3 40% 8 75.82 0.0
07 19:56 NW 17 G 26 16.09 Overcast FEW065 BKN080 OVC090 10 -3 40% 8 75.82 0.0
07 19:35 NW 22 G 30 16.09 Overcast FEW065 OVC090 11 -3 38% 75.82 0.0
07 19:15 NW 24 G 31 16.09 Mostly Cloudy FEW065 BKN090 BKN110 11 -4 35% 75.82 0.0
07 18:55 W 26 G 37 16.09 Partly Cloudy FEW100 SCT110 12 -4 33% 75.82 0.0
07 18:35 W 24 G 33 16.09 Partly Cloudy SCT070 SCT110 11 -4 35% 75.82 0.0
07 18:15 W 26 G 31 16.09 Mostly Cloudy BKN070 12 -4 33% 75.82 0.0
07 17:55 W 20 16.09 Overcast BKN070 OVC080 12 -3 35% 75.84 0.0
07 17:36 NW 19 16.09 Overcast OVC070 12 -3 35% 75.84 0.0
07 17:15 NW 20 G 37 16.09 Mostly Cloudy SCT070 BKN080 11 -4 35% 75.84 0.0
07 16:55 W 20 G 43 16.09 Mostly Cloudy BKN070 BKN085 12 -4 33% 75.84 0.0
07 16:35 NW 30 G 37 16.09 Mostly Cloudy SCT070 BKN085 12 -4 33% 75.84 0.0
07 16:15 W 31 G 46 16.09 Overcast SCT060 BKN075 OVC085 12 -3 35% 75.84 0.0
07 15:55 NW 26 G 35 16.09 Overcast BKN070 OVC080 11 -4 35% 75.87 0.0
07 15:35 W 28 G 41 16.09 Overcast SCT065 OVC080 11 -4 35% 75.9 0.0
07 15:16 W 26 G 33 16.09 Overcast BKN065 OVC080 12 -4 33% 75.87 0.0
07 14:55 NW 22 G 41 16.09 Overcast BKN065 OVC075 11 -4 35% 75.9 0.0
07 14:35 NW 24 G 37 16.09 Overcast FEW065 OVC075 10 -4 37% 7 75.9 0.0
07 14:15 NW 24 G 37 16.09 Overcast BKN060 OVC075 11 -3 38% 75.9 0.0
07 13:55 NW 26 G 43 16.09 Overcast BKN060 OVC070 11 -3 11.7 4.8 38% 75.92 0.0
07 13:35 W 22 G 33 16.09 Mostly Cloudy BKN060 BKN070 10 -5 35% 7 75.92 0.0
07 13:15 W 20 G 43 16.09 Mostly Cloudy BKN060 BKN070 10 -4 37% 8 75.95 0.0
07 12:56 W 22 G 39 16.09 Mostly Cloudy BKN050 BKN065 10 -4 37% 7 75.97 0.0
07 12:35 W 24 G 43 16.09 Partly Cloudy SCT050 11 -4 35% 75.97 0.0
Date Time (edt) Wind (kph) Vis. (km) Weather Sky Cond. Air Dwpt Max. Min. Relative Humidity Wind Chill (°C) Heat Index (°C) altimeter (cm) sea level (mb) 1 hr 3 hr 6 hr
6 hour
Temperature (ºC) Pressure Precipitation (cm)